Time;durP1;ratioP1;P1;durP2;ratioP2;P2;SDS_P1;SDS_P2;PMS_P1;PMS_P2;Temp;Humidity;BMP_temperature;BMP_pressure;BME280_temperature;BME280_humidity;BME280_pressure;Samples;Min_cycle;Max_cycle;Signal;HPM_P1;HPM_P2
2024/01/08 00:02:00;;;;;;;31.57;28.50;;;;;4.30;96110.00;;;;5051026;28;20447;-85
2024/01/08 00:04:49;;;;;;;42.30;34.53;;;;;4.40;96098.00;;;;5049351;28;20595;-85
2024/01/08 00:07:38;;;;;;;30.93;27.70;;;;;4.30;96098.00;;;;5044829;28;20197;-85
2024/01/08 00:10:27;;;;;;;28.23;25.37;;;;;4.30;96111.00;;;;5049457;28;20215;-86
2024/01/08 00:13:18;;;;;;;29.10;25.97;;;;;4.50;96101.00;;;;5048642;28;20424;-85
2024/01/08 00:16:07;;;;;;;27.60;24.70;;;;;4.40;96103.00;;;;5045817;28;20329;-85
2024/01/08 00:18:56;;;;;;;30.30;27.23;;;;;4.20;96104.00;;;;5048700;28;21478;-85
2024/01/08 00:21:46;;;;;;;27.60;22.90;;;;;4.30;96111.00;;;;5052805;28;20689;-85
2024/01/08 00:24:35;;;;;;;25.27;22.67;;;;;4.30;96111.00;;;;5048073;28;20439;-85
2024/01/08 00:27:24;;;;;;;27.13;24.40;;;;;4.40;96109.00;;;;5046047;28;20431;-86
2024/01/08 00:30:15;;;;;;;26.33;23.90;;;;;4.30;96105.00;;;;5042075;28;20679;-85
2024/01/08 00:33:05;;;;;;;26.93;24.17;;;;;4.30;96108.00;;;;5043264;28;20203;-85
2024/01/08 00:35:54;;;;;;;27.37;23.90;;;;;4.20;96109.00;;;;5056877;28;20212;-85
2024/01/08 00:38:43;;;;;;;29.83;24.00;;;;;4.20;96119.00;;;;5049926;28;20250;-85
2024/01/08 00:41:32;;;;;;;26.57;24.07;;;;;4.40;96114.00;;;;5051690;28;20212;-85
2024/01/08 00:44:21;;;;;;;18.67;15.87;;;;;4.40;96115.00;;;;5047515;28;20481;-85
2024/01/08 00:47:12;;;;;;;18.40;15.97;;;;;4.30;96117.00;;;;5044581;28;20825;-85
2024/01/08 00:50:01;;;;;;;17.83;16.00;;;;;4.40;96124.00;;;;5045912;28;20420;-85
2024/01/08 00:52:50;;;;;;;26.47;19.57;;;;;4.30;96125.00;;;;5046970;28;20200;-85
2024/01/08 00:55:39;;;;;;;18.50;16.40;;;;;4.30;96135.00;;;;5048455;28;20236;-85
2024/01/08 00:58:30;;;;;;;18.20;16.30;;;;;4.40;96140.00;;;;5047631;28;20459;-85
2024/01/08 01:01:20;;;;;;;59.70;34.40;;;;;4.40;96137.00;;;;5044803;28;20208;-85
2024/01/08 01:04:11;;;;;;;22.00;19.67;;;;;4.30;96138.00;;;;5046580;28;20436;-84
2024/01/08 01:07:00;;;;;;;19.60;17.77;;;;;4.30;96134.00;;;;5039994;28;20224;-85
2024/01/08 01:09:49;;;;;;;28.80;22.60;;;;;4.30;96143.00;;;;5050099;28;20583;-85
2024/01/08 01:12:38;;;;;;;20.50;17.87;;;;;4.40;96142.00;;;;5045928;28;20446;-86
2024/01/08 01:15:27;;;;;;;22.80;20.30;;;;;4.40;96161.00;;;;5046874;28;20227;-85
2024/01/08 01:18:16;;;;;;;23.20;20.03;;;;;4.30;96148.00;;;;5048669;28;20227;-85
2024/01/08 01:21:07;;;;;;;19.13;17.47;;;;;4.40;96153.00;;;;5048450;28;20454;-85
2024/01/08 01:23:56;;;;;;;26.77;20.63;;;;;4.60;96148.00;;;;5047024;28;20802;-86
2024/01/08 01:26:45;;;;;;;22.10;19.10;;;;;4.50;96151.00;;;;5050501;28;20459;-84
2024/01/08 01:29:36;;;;;;;20.53;18.33;;;;;4.50;96155.00;;;;5047947;28;20558;-86
2024/01/08 01:32:25;;;;;;;22.07;18.77;;;;;4.60;96158.00;;;;5045342;28;20809;-86
2024/01/08 01:35:15;;;;;;;19.17;17.13;;;;;4.60;96157.00;;;;5044968;28;20224;-86
2024/01/08 01:38:06;;;;;;;21.63;19.50;;;;;4.60;96157.00;;;;5044533;28;20455;-85
2024/01/08 01:40:55;;;;;;;25.23;22.57;;;;;4.50;96163.00;;;;5033661;28;20207;-85
2024/01/08 01:43:44;;;;;;;31.83;25.10;;;;;4.60;96165.00;;;;5047106;28;20193;-86
2024/01/08 01:46:40;;;;;;;30.80;27.70;;;;;4.50;96168.00;;;;5030852;28;20463;-85
2024/01/08 01:49:29;;;;;;;39.73;34.00;;;;;4.60;96161.00;;;;5046631;28;20428;-85
2024/01/08 01:52:20;;;;;;;220.03;72.07;;;;;4.50;96158.00;;;;5044717;28;20420;-85
2024/01/08 01:55:11;;;;;;;158.23;66.57;;;;;4.50;96162.00;;;;5047799;28;20423;-85
2024/01/08 01:58:00;;;;;;;150.53;69.10;;;;;4.50;96165.00;;;;5046103;28;20466;-85
2024/01/08 02:00:49;;;;;;;97.50;55.63;;;;;4.50;96161.00;;;;5046022;28;20423;-85
2024/01/08 02:03:38;;;;;;;239.33;90.23;;;;;4.60;96161.00;;;;5051318;28;20435;-87
2024/01/08 02:06:29;;;;;;;123.90;61.53;;;;;4.40;96153.00;;;;5048793;28;20447;-85
2024/01/08 02:09:18;;;;;;;140.00;63.90;;;;;4.50;96158.00;;;;5044193;28;20428;-85
2024/01/08 02:12:10;;;;;;;193.73;70.30;;;;;4.50;96164.00;;;;5052186;28;20434;-85
2024/01/08 02:15:02;;;;;;;168.73;70.30;;;;;4.20;96166.00;;;;5050029;28;20458;-87
2024/01/08 02:17:51;;;;;;;25.13;20.60;;;;;4.40;96158.00;;;;5052311;28;21016;-84
2024/01/08 02:20:40;;;;;;;24.83;22.60;;;;;4.40;96156.00;;;;5051452;28;20463;-85
2024/01/08 02:23:30;;;;;;;21.67;19.37;;;;;4.50;96162.00;;;;5048116;28;20200;-85
2024/01/08 02:26:20;;;;;;;21.93;19.70;;;;;4.50;96162.00;;;;5052156;28;20225;-85
2024/01/08 02:29:09;;;;;;;30.03;27.00;;;;;4.50;96167.00;;;;5045585;28;20823;-85
2024/01/08 02:31:59;;;;;;;33.17;29.83;;;;;4.20;96164.00;;;;5050815;28;20837;-85
2024/01/08 02:34:48;;;;;;;104.13;57.80;;;;;4.40;96167.00;;;;5049406;28;20265;-84
2024/01/08 02:37:37;;;;;;;31.30;28.10;;;;;4.40;96171.00;;;;5051806;28;20442;-85
2024/01/08 02:40:28;;;;;;;65.83;42.20;;;;;4.50;96168.00;;;;5050094;28;20728;-85
2024/01/08 02:43:17;;;;;;;28.70;25.73;;;;;4.50;96175.00;;;;5051386;28;20985;-85
2024/01/08 02:46:06;;;;;;;25.57;23.07;;;;;4.50;96171.00;;;;5046799;28;20992;-86
2024/01/08 02:48:56;;;;;;;42.00;34.60;;;;;4.40;96176.00;;;;5047038;28;20202;-86
2024/01/08 02:51:45;;;;;;;105.07;59.60;;;;;4.30;96181.00;;;;5047752;28;20442;-86
2024/01/08 02:54:35;;;;;;;22.20;18.80;;;;;4.60;96181.00;;;;5049382;28;20459;-87
2024/01/08 02:57:27;;;;;;;16.07;14.60;;;;;4.50;96185.00;;;;5048930;28;20431;-86
2024/01/08 03:00:17;;;;;;;14.67;13.23;;;;;4.30;96190.00;;;;5048485;28;20204;-88
2024/01/08 03:03:06;;;;;;;18.10;16.37;;;;;4.50;96190.00;;;;5046680;28;20204;-88
2024/01/08 03:05:55;;;;;;;29.33;23.13;;;;;4.60;96188.00;;;;5052319;28;20639;-88
2024/01/08 03:08:44;;;;;;;37.10;30.43;;;;;4.50;96188.00;;;;5050844;28;20197;-87
2024/01/08 03:11:33;;;;;;;122.70;58.37;;;;;4.50;96198.00;;;;5051537;28;20215;-87
2024/01/08 03:14:24;;;;;;;155.33;64.00;;;;;4.60;96201.00;;;;5050948;28;20700;-86
2024/01/08 03:17:14;;;;;;;86.80;49.73;;;;;4.40;96204.00;;;;5047890;28;20455;-87
2024/01/08 03:20:03;;;;;;;164.57;67.20;;;;;4.40;96198.00;;;;5051047;28;20603;-86
2024/01/08 03:22:53;;;;;;;73.93;51.27;;;;;4.40;96214.00;;;;5042332;28;20420;-87
2024/01/08 03:25:42;;;;;;;48.03;40.87;;;;;4.40;96213.00;;;;5048998;28;20228;-87
2024/01/08 03:28:32;;;;;;;54.93;43.87;;;;;4.50;96209.00;;;;5052359;28;20677;-86
2024/01/08 03:31:22;;;;;;;65.73;47.07;;;;;4.60;96213.00;;;;5048151;28;20205;-87
2024/01/08 03:34:11;;;;;;;91.80;55.00;;;;;4.50;96220.00;;;;5040219;28;20206;-86
2024/01/08 03:37:00;;;;;;;109.90;56.23;;;;;4.40;96219.00;;;;5051512;28;20435;-87
2024/01/08 03:39:49;;;;;;;113.47;60.27;;;;;4.40;96219.00;;;;5049653;28;20473;-87
2024/01/08 03:42:39;;;;;;;112.17;57.67;;;;;4.30;96219.00;;;;5052697;28;20201;-87
2024/01/08 03:45:28;;;;;;;107.33;57.63;;;;;4.30;96219.00;;;;5050334;28;20224;-87
2024/01/08 03:48:19;;;;;;;112.57;59.03;;;;;4.50;96234.00;;;;5049908;28;20787;-87
2024/01/08 03:51:08;;;;;;;87.87;50.37;;;;;4.40;96239.00;;;;5047065;28;20431;-87
2024/01/08 03:53:57;;;;;;;107.37;58.30;;;;;4.30;96232.00;;;;5052565;28;20434;-87
2024/01/08 03:56:46;;;;;;;144.93;65.93;;;;;4.50;96233.00;;;;5045757;28;20451;-87
2024/01/08 03:59:35;;;;;;;150.57;64.93;;;;;4.30;96237.00;;;;5050377;28;20455;-86
2024/01/08 04:02:24;;;;;;;176.33;69.43;;;;;4.40;96248.00;;;;5051340;28;20443;-87
2024/01/08 04:05:15;;;;;;;205.23;72.77;;;;;4.50;96248.00;;;;5044295;28;20455;-87
2024/01/08 04:08:04;;;;;;;106.67;56.70;;;;;4.30;96248.00;;;;5049877;28;21204;-88
2024/01/08 04:10:53;;;;;;;118.33;61.53;;;;;4.40;96245.00;;;;5052149;28;20419;-87
2024/01/08 04:13:43;;;;;;;122.53;60.07;;;;;4.30;96249.00;;;;5052253;28;20482;-87
2024/01/08 04:16:32;;;;;;;83.67;50.83;;;;;4.40;96256.00;;;;5048497;28;20452;-86
2024/01/08 04:19:21;;;;;;;101.63;54.87;;;;;4.40;96257.00;;;;5051450;28;21074;-86
2024/01/08 04:22:11;;;;;;;131.43;60.97;;;;;4.30;96266.00;;;;5044785;28;20465;-87
2024/01/08 04:25:00;;;;;;;99.63;54.30;;;;;4.20;96262.00;;;;5051460;28;20442;-87
2024/01/08 04:27:49;;;;;;;186.37;73.33;;;;;4.00;96252.00;;;;5051865;28;20416;-88
2024/01/08 04:30:39;;;;;;;73.20;46.87;;;;;4.20;96264.00;;;;5049178;28;20451;-85
2024/01/08 04:33:28;;;;;;;177.80;70.27;;;;;4.30;96262.00;;;;5051076;28;20254;-85
2024/01/08 04:36:17;;;;;;;147.40;64.27;;;;;4.30;96276.00;;;;5047618;28;20453;-87
2024/01/08 04:39:08;;;;;;;127.80;61.20;;;;;4.40;96268.00;;;;5048795;28;20493;-87
2024/01/08 04:41:57;;;;;;;176.43;71.10;;;;;4.40;96270.00;;;;5049813;28;20424;-87
2024/01/08 04:44:47;;;;;;;155.73;75.93;;;;;4.40;96282.00;;;;5047697;28;20427;-87
2024/01/08 04:47:36;;;;;;;34.27;30.67;;;;;4.40;96273.00;;;;5048265;28;20447;-87
2024/01/08 04:50:25;;;;;;;29.10;26.20;;;;;4.40;96290.00;;;;5051038;28;20419;-87
2024/01/08 04:53:14;;;;;;;27.93;24.70;;;;;4.40;96298.00;;;;5050657;28;20458;-87
2024/01/08 04:56:06;;;;;;;24.23;21.77;;;;;4.40;96294.00;;;;5050517;28;20431;-86
2024/01/08 04:58:55;;;;;;;25.30;21.50;;;;;4.40;96293.00;;;;5055586;28;20205;-86
2024/01/08 05:01:44;;;;;;;29.37;23.50;;;;;4.40;96296.00;;;;5043371;28;20439;-87
2024/01/08 05:04:33;;;;;;;20.37;17.87;;;;;4.30;96303.00;;;;5051016;28;20435;-87
2024/01/08 05:07:22;;;;;;;20.07;18.00;;;;;4.30;96303.00;;;;5046119;28;20447;-87
2024/01/08 05:10:12;;;;;;;31.07;22.73;;;;;4.30;96308.00;;;;5052271;28;20209;-87
2024/01/08 05:13:02;;;;;;;19.33;17.03;;;;;4.40;96310.00;;;;5049421;28;20203;-87
2024/01/08 05:15:51;;;;;;;21.93;15.20;;;;;4.40;96310.00;;;;5050169;28;20228;-87
2024/01/08 05:18:41;;;;;;;15.53;11.30;;;;;4.30;96316.00;;;;5049562;28;20209;-87
2024/01/08 05:21:30;;;;;;;17.67;13.90;;;;;4.20;96321.00;;;;5043876;28;20205;-86
2024/01/08 05:24:19;;;;;;;18.03;14.57;;;;;4.30;96320.00;;;;5049571;28;20962;-86
2024/01/08 05:27:08;;;;;;;14.20;12.80;;;;;4.50;96327.00;;;;5045413;28;20220;-87
2024/01/08 05:29:59;;;;;;;24.10;16.77;;;;;4.40;96328.00;;;;5049088;28;20310;-86
2024/01/08 05:32:50;;;;;;;30.63;19.10;;;;;4.40;96333.00;;;;5045055;28;20208;-87
2024/01/08 05:35:40;;;;;;;19.63;15.90;;;;;4.30;96337.00;;;;5049761;28;20224;-86
2024/01/08 05:38:29;;;;;;;16.57;13.97;;;;;4.40;96335.00;;;;5048782;28;20275;-86
2024/01/08 05:41:20;;;;;;;46.70;26.30;;;;;4.10;96337.00;;;;5041544;28;20236;-85
2024/01/08 05:44:09;;;;;;;28.17;19.63;;;;;4.20;96351.00;;;;5050623;28;20638;-86
2024/01/08 05:47:00;;;;;;;20.50;16.13;;;;;4.30;96354.00;;;;5048461;28;20220;-86
2024/01/08 05:49:49;;;;;;;27.80;19.25;;;;;4.30;96353.00;;;;5045004;28;20204;-86
2024/01/08 05:52:38;;;;;;;26.70;22.60;;;;;4.40;96360.00;;;;5047550;28;20619;-86
2024/01/08 05:55:28;;;;;;;27.40;24.55;;;;;4.30;96363.00;;;;5034497;28;20475;-87
2024/01/08 05:58:17;;;;;;;26.95;24.05;;;;;4.10;96362.00;;;;5049901;28;20200;-87
2024/01/08 06:01:06;;;;;;;55.83;31.33;;;;;4.30;96362.00;;;;5033576;28;20224;-84
2024/01/08 06:03:57;;;;;;;30.63;24.87;;;;;4.20;96366.00;;;;5049431;28;20195;-85
2024/01/08 06:06:46;;;;;;;77.67;41.03;;;;;4.20;96368.00;;;;5036380;28;20224;-85
2024/01/08 06:09:35;;;;;;;35.73;31.23;;;;;4.30;96375.00;;;;5044598;28;20208;-85
2024/01/08 06:12:24;;;;;;;54.03;37.33;;;;;4.00;96377.00;;;;5043471;28;20666;-85
2024/01/08 06:15:13;;;;;;;54.67;41.53;;;;;4.10;96375.00;;;;5042669;28;20209;-85
2024/01/08 06:18:03;;;;;;;52.50;41.90;;;;;4.20;96373.00;;;;5047806;28;20440;-85
2024/01/08 06:20:55;;;;;;;54.87;41.20;;;;;4.30;96373.00;;;;5046129;28;20737;-85
2024/01/08 06:23:44;;;;;;;113.27;71.57;;;;;4.30;96383.00;;;;5035713;28;20460;-86
2024/01/08 06:26:33;;;;;;;94.00;53.80;;;;;4.20;96392.00;;;;5040464;28;20463;-85
2024/01/08 06:29:23;;;;;;;116.17;58.13;;;;;4.40;96389.00;;;;5045335;28;20952;-86
2024/01/08 06:32:12;;;;;;;263.77;99.00;;;;;4.40;96386.00;;;;5035093;28;20438;-86
2024/01/08 06:35:02;;;;;;;138.40;70.27;;;;;4.30;96396.00;;;;5043131;28;20414;-84
2024/01/08 06:37:53;;;;;;;210.73;96.73;;;;;4.30;96399.00;;;;5039659;28;20440;-85
2024/01/08 06:40:42;;;;;;;117.60;62.35;;;;;4.30;96396.00;;;;5039666;28;20468;-85
2024/01/08 06:43:31;;;;;;;135.83;62.53;;;;;4.40;96404.00;;;;5039606;28;20430;-84
2024/01/08 06:46:20;;;;;;;154.47;81.10;;;;;4.00;96408.00;;;;5028912;28;20439;-85
2024/01/08 06:49:09;;;;;;;159.57;78.40;;;;;4.20;96410.00;;;;5029215;28;20423;-84
2024/01/08 06:52:01;;;;;;;169.63;82.20;;;;;4.10;96408.00;;;;5048570;28;20448;-85
2024/01/08 06:54:51;;;;;;;185.13;87.77;;;;;4.20;96426.00;;;;5053219;28;20431;-85
2024/01/08 06:57:40;;;;;;;225.87;96.07;;;;;4.00;96412.00;;;;5029805;28;20447;-85
2024/01/08 07:00:29;;;;;;;283.37;110.60;;;;;3.90;96418.00;;;;5024494;28;20463;-86
2024/01/08 07:03:19;;;;;;;236.20;98.17;;;;;4.10;96432.00;;;;5034042;28;20435;-87
2024/01/08 07:06:08;;;;;;;203.53;71.73;;;;;4.40;96430.00;;;;5047251;28;20461;-86
2024/01/08 07:08:57;;;;;;;203.23;73.27;;;;;4.30;96436.00;;;;5046412;28;20445;-85
2024/01/08 07:11:47;;;;;;;81.53;51.20;;;;;4.10;96431.00;;;;5047943;28;20422;-87
2024/01/08 07:14:46;;;;;;;130.07;72.13;;;;;4.20;96431.00;;;;5041172;28;20419;-87
2024/01/08 07:17:36;;;;;;;77.57;49.30;;;;;4.00;96438.00;;;;5030040;28;20677;-86
2024/01/08 07:20:25;;;;;;;39.07;34.67;;;;;4.00;96442.00;;;;5049444;28;20468;-86
2024/01/08 07:23:15;;;;;;;44.83;36.07;;;;;4.10;96443.00;;;;5048887;28;20205;-85
2024/01/08 07:26:04;;;;;;;35.80;32.03;;;;;4.00;96456.00;;;;5051002;28;20259;-87
2024/01/08 07:28:55;;;;;;;71.80;45.20;;;;;4.20;96459.00;;;;5043968;28;20428;-87
2024/01/08 07:31:44;;;;;;;28.50;25.47;;;;;3.80;96440.00;;;;5048722;28;20209;-86
2024/01/08 07:34:33;;;;;;;20.90;18.80;;;;;3.90;96468.00;;;;5048360;28;20212;-87
2024/01/08 07:37:22;;;;;;;15.43;11.37;;;;;3.80;96463.00;;;;5049971;28;20437;-86
2024/01/08 07:40:12;;;;;;;17.73;12.63;;;;;3.90;96460.00;;;;5050758;28;20662;-85
2024/01/08 07:43:01;;;;;;;25.53;18.50;;;;;4.20;96476.00;;;;5050682;28;20696;-86
2024/01/08 07:45:52;;;;;;;28.77;18.90;;;;;3.90;96478.00;;;;5044860;28;20458;-86
2024/01/08 07:48:41;;;;;;;19.13;14.33;;;;;3.70;96469.00;;;;5050738;28;20800;-86
2024/01/08 07:51:30;;;;;;;15.10;10.73;;;;;4.00;96473.00;;;;5050136;28;20513;-87
2024/01/08 07:54:20;;;;;;;15.50;11.67;;;;;4.10;96477.00;;;;5050378;28;20944;-87
2024/01/08 07:57:09;;;;;;;13.90;11.03;;;;;4.00;96476.00;;;;5048824;28;20467;-84
2024/01/08 07:59:59;;;;;;;21.03;13.37;;;;;3.30;96462.00;;;;5042982;28;20424;-87
2024/01/08 08:02:49;;;;;;;24.97;14.30;;;;;4.00;96489.00;;;;5047820;28;20208;-85
2024/01/08 08:05:39;;;;;;;15.73;11.57;;;;;4.00;96487.00;;;;5049036;28;20955;-85
2024/01/08 08:08:31;;;;;;;21.37;15.43;;;;;4.20;96484.00;;;;5048493;28;20212;-86
2024/01/08 08:11:20;;;;;;;25.60;21.23;;;;;4.00;96486.00;;;;5046529;28;20432;-86
2024/01/08 08:14:09;;;;;;;20.50;18.37;;;;;4.30;96502.00;;;;5049413;28;20956;-85
2024/01/08 08:16:58;;;;;;;31.57;26.77;;;;;4.40;96506.00;;;;5051530;28;20447;-85
2024/01/08 08:19:49;;;;;;;26.53;21.73;;;;;4.40;96502.00;;;;5047384;28;20423;-85
2024/01/08 08:22:38;;;;;;;24.53;22.13;;;;;4.40;96510.00;;;;5049423;28;20244;-87
2024/01/08 08:25:28;;;;;;;26.00;23.17;;;;;3.90;96508.00;;;;5046634;28;20229;-87
2024/01/08 08:28:18;;;;;;;25.83;22.70;;;;;4.30;96503.00;;;;5051788;28;20212;-86
2024/01/08 08:31:07;;;;;;;24.90;22.27;;;;;4.50;96520.00;;;;5047878;28;20822;-86
2024/01/08 08:33:56;;;;;;;41.37;30.67;;;;;4.40;96529.00;;;;5047894;28;20682;-87
2024/01/08 08:36:47;;;;;;;28.13;25.17;;;;;4.50;96528.00;;;;5044417;28;20505;-85
2024/01/08 08:39:36;;;;;;;24.07;20.77;;;;;4.30;96525.00;;;;5045972;28;20443;-86
2024/01/08 08:42:25;;;;;;;23.17;19.33;;;;;4.50;96533.00;;;;5046647;28;20221;-86
2024/01/08 08:45:17;;;;;;;21.57;19.40;;;;;4.50;96532.00;;;;5039905;28;20644;-86
2024/01/08 08:48:09;;;;;;;24.03;18.77;;;;;4.30;96539.00;;;;5047858;28;20205;-87
2024/01/08 08:50:58;;;;;;;33.20;21.03;;;;;4.50;96547.00;;;;5048411;28;20204;-86
2024/01/08 08:53:48;;;;;;;23.47;18.87;;;;;4.60;96551.00;;;;5046732;28;20204;-87
2024/01/08 08:56:38;;;;;;;20.40;18.40;;;;;4.60;96556.00;;;;5045157;28;20455;-87
2024/01/08 08:59:27;;;;;;;24.73;21.73;;;;;4.30;96552.00;;;;5046657;28;20208;-86
2024/01/08 09:02:18;;;;;;;25.93;23.00;;;;;4.60;96558.00;;;;5043574;28;20224;-86
2024/01/08 09:05:08;;;;;;;60.90;35.70;;;;;4.50;96563.00;;;;5040665;28;20205;-87
2024/01/08 09:07:57;;;;;;;34.83;26.40;;;;;4.40;96564.00;;;;5044157;28;20214;-87
2024/01/08 09:10:48;;;;;;;21.93;16.93;;;;;4.60;96572.00;;;;5044502;28;20200;-86
2024/01/08 09:13:37;;;;;;;20.10;17.97;;;;;4.70;96568.00;;;;5045087;28;20565;-85
2024/01/08 09:16:26;;;;;;;21.40;19.20;;;;;4.30;96570.00;;;;5050314;28;20603;-87
2024/01/08 09:19:16;;;;;;;21.63;19.40;;;;;4.50;96567.00;;;;5049648;28;20204;-84
2024/01/08 09:22:05;;;;;;;19.03;16.63;;;;;3.70;96558.00;;;;5050672;28;20229;-87
2024/01/08 09:24:54;;;;;;;23.70;19.43;;;;;4.10;96570.00;;;;5046951;28;20215;-87
2024/01/08 09:27:45;;;;;;;21.87;19.93;;;;;4.40;96566.00;;;;5050305;28;20211;-85
2024/01/08 09:30:34;;;;;;;23.10;20.73;;;;;4.70;96579.00;;;;5048774;28;20205;-87
2024/01/08 09:33:23;;;;;;;27.67;22.90;;;;;4.50;96584.00;;;;5050007;28;20850;-85
2024/01/08 09:36:12;;;;;;;22.03;18.57;;;;;4.70;96597.00;;;;5046012;28;20229;-87
2024/01/08 09:39:02;;;;;;;25.10;21.17;;;;;4.60;96595.00;;;;5049854;28;20205;-87
2024/01/08 09:41:54;;;;;;;33.43;25.80;;;;;4.80;96597.00;;;;5049247;28;20718;-85
2024/01/08 09:44:47;;;;;;;25.30;22.87;;;;;4.70;96603.00;;;;5050242;28;20204;-88
2024/01/08 09:47:37;;;;;;;25.60;23.20;;;;;4.70;96603.00;;;;5042287;28;20217;-86
2024/01/08 09:50:27;;;;;;;29.80;26.63;;;;;4.90;96605.00;;;;5041368;28;20693;-87
2024/01/08 09:53:17;;;;;;;31.43;28.03;;;;;4.90;96612.00;;;;5052289;28;20247;-86
2024/01/08 09:56:06;;;;;;;30.53;27.50;;;;;4.80;96610.00;;;;5045007;28;20243;-86
2024/01/08 09:58:56;;;;;;;29.50;26.50;;;;;4.30;96605.00;;;;5048720;28;20211;-86
2024/01/08 10:01:46;;;;;;;25.63;23.07;;;;;3.70;96595.00;;;;5049441;28;20603;-87
2024/01/08 10:04:36;;;;;;;29.77;26.73;;;;;4.10;96606.00;;;;5049193;28;20215;-85
2024/01/08 10:07:26;;;;;;;27.17;24.27;;;;;4.20;96608.00;;;;5043602;28;20208;-87
2024/01/08 10:10:15;;;;;;;18.27;16.87;;;;;4.30;96620.00;;;;5049404;28;20231;-86
2024/01/08 10:13:04;;;;;;;29.53;21.57;;;;;4.00;96615.00;;;;5046838;28;20200;-85
2024/01/08 10:15:54;;;;;;;21.20;18.20;;;;;4.40;96610.00;;;;5047024;28;20225;-86
2024/01/08 10:18:47;;;;;;;18.43;16.57;;;;;4.70;96623.00;;;;5046500;28;20208;-87
2024/01/08 10:21:37;;;;;;;24.50;21.90;;;;;4.60;96617.00;;;;5047407;28;20219;-85
2024/01/08 10:24:26;;;;;;;24.93;22.20;;;;;4.70;96614.00;;;;5052392;28;20423;-86
2024/01/08 10:27:15;;;;;;;21.27;19.30;;;;;4.40;96626.00;;;;5051163;28;20220;-86
2024/01/08 10:30:05;;;;;;;29.37;26.27;;;;;4.50;96621.00;;;;5053063;28;20203;-86
2024/01/08 10:32:59;;;;;;;35.30;30.87;;;;;4.40;96617.00;;;;5050018;28;20216;-85
2024/01/08 10:35:51;;;;;;;35.53;31.37;;;;;4.60;96617.00;;;;5049531;28;20390;-86
2024/01/08 10:38:40;;;;;;;36.43;32.63;;;;;4.50;96624.00;;;;5053258;28;20205;-86
2024/01/08 10:41:29;;;;;;;37.17;33.17;;;;;4.30;96625.00;;;;5045164;28;20213;-86
2024/01/08 10:44:19;;;;;;;45.13;36.53;;;;;3.90;96618.00;;;;5046041;28;20208;-86
2024/01/08 10:47:10;;;;;;;40.97;36.40;;;;;4.50;96620.00;;;;5047699;28;20232;-87
2024/01/08 10:50:05;;;;;;;48.70;38.50;;;;;4.40;96625.00;;;;5052388;28;20215;-86
2024/01/08 10:52:58;;;;;;;56.97;42.10;;;;;3.90;96616.00;;;;5049660;28;20435;-85
2024/01/08 10:55:48;;;;;;;66.73;46.03;;;;;3.70;96613.00;;;;5049218;28;20225;-86
2024/01/08 10:58:37;;;;;;;141.53;63.27;;;;;4.20;96627.00;;;;5051378;28;20427;-86
2024/01/08 11:01:27;;;;;;;125.30;64.73;;;;;4.10;96624.00;;;;5053136;28;20435;-88
2024/01/08 11:04:17;;;;;;;119.10;62.33;;;;;4.30;96630.00;;;;5052483;28;20438;-86
2024/01/08 11:07:06;;;;;;;114.37;56.90;;;;;4.10;96626.00;;;;5052080;28;20841;-87
2024/01/08 11:10:04;;;;;;;131.93;62.73;;;;;4.40;96638.00;;;;5049212;28;20423;-86
2024/01/08 11:12:55;;;;;;;152.30;70.00;;;;;4.40;96631.00;;;;5049824;28;20440;-87
2024/01/08 11:15:46;;;;;;;190.57;70.20;;;;;3.90;96615.00;;;;5049205;28;20478;-87
2024/01/08 11:18:38;;;;;;;222.93;72.77;;;;;3.90;96636.00;;;;5045945;28;20925;-86
2024/01/08 11:21:27;;;;;;;222.33;74.10;;;;;3.60;96625.00;;;;5045837;28;20808;-89
2024/01/08 11:24:16;;;;;;;157.33;69.17;;;;;4.00;96625.00;;;;5044895;28;20490;-86
2024/01/08 11:27:07;;;;;;;229.27;78.00;;;;;4.00;96634.00;;;;5045020;28;20836;-86
2024/01/08 11:29:58;;;;;;;101.50;57.27;;;;;4.20;96635.00;;;;5048402;28;20442;-87
2024/01/08 11:33:12;;;;;;;106.90;61.80;;;;;4.20;96641.00;;;;5042049;28;20431;-87
2024/01/08 11:36:09;;;;;;;102.37;59.00;;;;;4.10;96643.00;;;;5045272;28;21022;-87
2024/01/08 11:39:13;;;;;;;229.83;81.17;;;;;4.10;96640.00;;;;5049721;28;20444;-85
2024/01/08 11:42:02;;;;;;;287.27;89.57;;;;;4.20;96644.00;;;;5042519;28;20456;-87
2024/01/08 11:44:52;;;;;;;164.70;69.40;;;;;3.80;96636.00;;;;5048054;28;20808;-86
2024/01/08 11:47:43;;;;;;;180.87;65.63;;;;;4.20;96639.00;;;;5048817;28;20435;-86
2024/01/08 11:50:32;;;;;;;265.13;73.70;;;;;3.50;96635.00;;;;5054468;28;20423;-86
2024/01/08 11:53:22;;;;;;;123.90;62.53;;;;;3.10;96623.00;;;;5048701;28;20428;-87
2024/01/08 11:56:11;;;;;;;68.03;46.57;;;;;3.80;96641.00;;;;5046455;28;20597;-85
2024/01/08 11:59:00;;;;;;;84.70;53.17;;;;;3.60;96625.00;;;;5043523;28;20438;-87
2024/01/08 12:01:52;;;;;;;69.43;46.53;;;;;4.00;96632.00;;;;5040303;28;20438;-86
2024/01/08 12:04:41;;;;;;;76.83;49.23;;;;;4.00;96644.00;;;;5039519;28;20444;-87
2024/01/08 12:07:32;;;;;;;92.83;56.13;;;;;3.40;96630.00;;;;5036973;28;20423;-87
2024/01/08 12:10:21;;;;;;;97.80;54.43;;;;;3.80;96645.00;;;;5037426;28;20436;-88
2024/01/08 12:13:10;;;;;;;104.20;55.00;;;;;3.90;96644.00;;;;5046734;28;20433;-85
2024/01/08 12:16:01;;;;;;;131.87;65.73;;;;;3.90;96655.00;;;;5045992;28;20466;-88
2024/01/08 12:18:51;;;;;;;132.33;63.87;;;;;3.90;96661.00;;;;5046015;28;20809;-86
2024/01/08 12:21:41;;;;;;;136.97;61.97;;;;;4.10;96650.00;;;;5048202;28;20976;-85
2024/01/08 12:24:31;;;;;;;139.70;62.57;;;;;4.20;96659.00;;;;5048572;28;20462;-85
2024/01/08 12:27:21;;;;;;;136.20;59.37;;;;;4.20;96656.00;;;;5050091;28;20462;-87
2024/01/08 12:30:12;;;;;;;145.40;63.50;;;;;4.30;96657.00;;;;5049123;28;20439;-85
2024/01/08 12:33:01;;;;;;;173.97;72.93;;;;;3.60;96650.00;;;;5046920;28;20428;-86
2024/01/08 12:35:55;;;;;;;180.57;70.80;;;;;3.90;96653.00;;;;5045906;28;20534;-84
2024/01/08 12:38:44;;;;;;;193.50;70.17;;;;;3.70;96659.00;;;;5050333;28;21186;-86
2024/01/08 12:41:33;;;;;;;100.17;54.07;;;;;3.80;96660.00;;;;5047916;28;20443;-86
2024/01/08 12:44:24;;;;;;;133.77;63.77;;;;;4.20;96655.00;;;;5049527;28;20573;-84
2024/01/08 12:47:14;;;;;;;128.07;59.80;;;;;4.00;96645.00;;;;5045615;28;20447;-86
2024/01/08 12:50:03;;;;;;;58.37;42.27;;;;;3.40;96645.00;;;;5047866;28;20435;-86
2024/01/08 12:52:54;;;;;;;77.93;50.60;;;;;3.90;96675.00;;;;5045611;28;20420;-84
2024/01/08 12:55:43;;;;;;;176.63;65.93;;;;;3.40;96660.00;;;;5050418;28;20464;-86
2024/01/08 12:58:32;;;;;;;37.30;32.63;;;;;3.70;96668.00;;;;5041450;28;20829;-86
2024/01/08 13:01:21;;;;;;;58.60;42.77;;;;;3.50;96663.00;;;;5042533;28;20431;-86
2024/01/08 13:04:14;;;;;;;144.57;63.20;;;;;3.60;96663.00;;;;5039615;28;20964;-84
2024/01/08 13:07:03;;;;;;;203.07;74.90;;;;;3.90;96682.00;;;;5049687;28;20450;-86
2024/01/08 13:09:53;;;;;;;97.77;57.53;;;;;3.80;96673.00;;;;5048436;28;20485;-85
2024/01/08 13:12:43;;;;;;;120.87;60.47;;;;;3.90;96684.00;;;;5047712;28;20427;-84
2024/01/08 13:15:32;;;;;;;110.00;56.73;;;;;3.20;96683.00;;;;5047310;28;20436;-87
2024/01/08 13:18:21;;;;;;;96.90;53.90;;;;;3.60;96676.00;;;;5048238;28;20428;-87
2024/01/08 13:21:10;;;;;;;106.20;56.63;;;;;2.80;96683.00;;;;5049016;28;20863;-84
2024/01/08 13:23:59;;;;;;;156.10;69.97;;;;;3.40;96688.00;;;;5042928;28;20486;-86
2024/01/08 13:26:50;;;;;;;201.80;69.83;;;;;3.30;96701.00;;;;5040501;28;20435;-89
2024/01/08 13:29:39;;;;;;;51.63;41.83;;;;;3.80;96699.00;;;;5048644;28;20465;-86
2024/01/08 13:32:28;;;;;;;50.10;39.43;;;;;3.80;96704.00;;;;5040578;28;20944;-86
2024/01/08 13:35:18;;;;;;;40.07;34.80;;;;;3.80;96709.00;;;;5045778;28;20847;-85
2024/01/08 13:38:07;;;;;;;45.30;35.57;;;;;3.90;96708.00;;;;5048220;28;20447;-86
2024/01/08 13:40:58;;;;;;;49.13;37.57;;;;;3.70;96710.00;;;;5047426;28;20439;-86
2024/01/08 13:43:48;;;;;;;36.27;32.20;;;;;2.90;96712.00;;;;5045149;28;21134;-85
2024/01/08 13:46:38;;;;;;;36.87;32.90;;;;;3.70;96715.00;;;;5043571;28;20486;-85
2024/01/08 13:49:27;;;;;;;35.20;31.33;;;;;4.00;96721.00;;;;5044868;28;20435;-85
2024/01/08 13:52:16;;;;;;;41.83;34.30;;;;;4.00;96731.00;;;;5042900;28;20467;-85
2024/01/08 13:55:06;;;;;;;49.83;37.40;;;;;3.10;96727.00;;;;5039486;28;20929;-85
2024/01/08 13:57:56;;;;;;;58.20;43.23;;;;;3.40;96740.00;;;;5044338;28;20446;-84